createdAt,value
2019-05-14T00:00:35.049Z,156.00
2019-05-14T00:01:11.840Z,171.60
2019-05-14T00:01:45.854Z,164.20
2019-05-14T00:02:21.447Z,141.10
2019-05-14T00:02:56.478Z,146.20
2019-05-14T00:03:31.887Z,148.20
2019-05-14T00:04:07.162Z,128.50
2019-05-14T00:04:42.595Z,145.20
2019-05-14T00:05:17.772Z,159.30
2019-05-14T00:05:53.205Z,163.90
2019-05-14T00:06:31.007Z,155.50
2019-05-14T00:07:04.097Z,145.10
2019-05-14T00:07:41.352Z,152.10
2019-05-14T00:08:17.472Z,156.70
2019-05-14T00:08:52.109Z,143.90
2019-05-14T00:09:25.810Z,149.60
2019-05-14T00:10:01.307Z,150.00
2019-05-14T00:10:36.517Z,161.00
2019-05-14T00:11:12.960Z,151.70
2019-05-14T00:11:47.216Z,156.00
2019-05-14T00:12:22.901Z,174.10
2019-05-14T00:12:58.225Z,171.80
2019-05-14T00:13:33.312Z,156.90
2019-05-14T00:14:08.504Z,130.60
2019-05-14T00:14:44.031Z,126.50
2019-05-14T00:15:19.001Z,149.40
2019-05-14T00:15:54.384Z,173.90
2019-05-14T00:16:31.445Z,166.50
2019-05-14T00:17:04.821Z,146.60
2019-05-14T00:17:41.617Z,129.00
2019-05-14T00:18:15.549Z,160.30
2019-05-14T00:18:51.182Z,152.30
2019-05-14T00:19:26.344Z,164.00
2019-05-14T00:20:07.227Z,151.10
2019-05-14T00:20:36.960Z,137.40
2019-05-14T00:21:12.537Z,145.10
2019-05-14T00:21:47.751Z,145.70
2019-05-14T00:22:22.933Z,150.00
2019-05-14T00:22:58.673Z,139.30
2019-05-14T00:23:34.267Z,124.10
2019-05-14T00:24:11.290Z,134.90
2019-05-14T00:24:44.885Z,143.20
2019-05-14T00:25:21.915Z,146.70
2019-05-14T00:25:55.490Z,167.50
2019-05-14T00:26:31.836Z,165.20
2019-05-14T00:27:06.120Z,156.60
2019-05-14T00:27:41.609Z,140.40
2019-05-14T00:28:16.849Z,158.30
2019-05-14T00:28:52.237Z,164.00
2019-05-14T00:29:27.656Z,156.80
2019-05-14T00:30:02.958Z,147.50
2019-05-14T00:30:38.592Z,131.40
2019-05-14T00:31:13.977Z,136.80
2019-05-14T00:31:51.509Z,141.10
2019-05-14T00:32:24.586Z,153.10
2019-05-14T00:33:01.218Z,164.00
2019-05-14T00:33:35.208Z,158.20
2019-05-14T00:34:11.218Z,142.20
2019-05-14T00:34:45.901Z,140.70
2019-05-14T00:35:21.538Z,149.60
2019-05-14T00:35:56.580Z,167.50
2019-05-14T00:36:31.997Z,169.90
2019-05-14T00:37:07.077Z,167.40
2019-05-14T00:37:42.398Z,143.00
2019-05-14T00:38:17.918Z,132.60
2019-05-14T00:38:53.346Z,136.20
2019-05-14T00:39:28.717Z,132.00
2019-05-14T00:40:04.123Z,136.40
2019-05-14T00:40:39.307Z,150.40
2019-05-14T00:41:14.721Z,144.00
2019-05-14T00:41:51.245Z,158.40
2019-05-14T00:42:25.937Z,184.40
2019-05-14T00:43:02.692Z,174.00
2019-05-14T00:43:36.554Z,166.00
2019-05-14T00:44:13.360Z,163.70
2019-05-14T00:44:54.606Z,142.40
2019-05-14T00:45:22.340Z,132.50
2019-05-14T00:45:57.645Z,146.80
2019-05-14T00:46:33.018Z,148.50
2019-05-14T00:47:08.242Z,145.70
2019-05-14T00:47:43.432Z,139.10
2019-05-14T00:48:18.775Z,143.40
2019-05-14T00:48:53.973Z,148.30
2019-05-14T00:49:31.548Z,142.40
2019-05-14T00:50:04.375Z,126.70
2019-05-14T00:50:39.592Z,138.60
2019-05-14T00:51:14.977Z,164.10
2019-05-14T00:51:51.952Z,163.60
2019-05-14T00:52:25.675Z,149.40
2019-05-14T00:53:01.970Z,148.40
2019-05-14T00:53:36.332Z,139.80
2019-05-14T00:54:11.566Z,144.20
2019-05-14T00:54:46.943Z,155.40
2019-05-14T00:55:22.499Z,162.90
2019-05-14T00:55:57.773Z,159.00
2019-05-14T00:56:33.187Z,156.40
2019-05-14T00:57:08.702Z,126.20
2019-05-14T00:57:44.010Z,120.20
2019-05-14T00:58:21.570Z,141.60
2019-05-14T00:58:54.646Z,159.80
2019-05-14T00:59:32.010Z,163.30
2019-05-14T01:00:05.081Z,157.20
2019-05-14T01:00:41.772Z,142.10
2019-05-14T01:01:15.596Z,145.50
2019-05-14T01:01:51.706Z,157.30
2019-05-14T01:02:26.181Z,165.10
2019-05-14T01:03:01.994Z,158.90
2019-05-14T01:03:36.802Z,145.80
2019-05-14T01:04:12.100Z,162.70
2019-05-14T01:04:47.311Z,161.40
2019-05-14T01:05:22.528Z,146.40
2019-05-14T01:05:57.710Z,152.80
2019-05-14T01:06:33.368Z,167.00
2019-05-14T01:07:08.643Z,161.50
2019-05-14T01:07:43.932Z,171.70
2019-05-14T01:08:21.340Z,165.60
2019-05-14T01:08:54.964Z,140.70
2019-05-14T01:09:31.422Z,139.40
2019-05-14T01:10:06.170Z,148.00
2019-05-14T01:10:41.799Z,135.40
2019-05-14T01:11:16.744Z,149.50
2019-05-14T01:11:52.220Z,156.30
2019-05-14T01:12:27.323Z,169.10
2019-05-14T01:13:02.659Z,155.90
2019-05-14T01:13:38.054Z,142.60
2019-05-14T01:14:13.330Z,150.00
2019-05-14T01:14:48.525Z,167.20
2019-05-14T01:15:24.004Z,161.40
2019-05-14T01:16:01.339Z,135.90
2019-05-14T01:16:34.802Z,158.30
2019-05-14T01:17:11.249Z,162.30
2019-05-14T01:17:45.596Z,163.30
2019-05-14T01:18:21.910Z,173.00
2019-05-14T01:18:56.224Z,165.20
2019-05-14T01:19:31.679Z,162.80
2019-05-14T01:20:07.031Z,147.30
2019-05-14T01:20:42.449Z,135.10
2019-05-14T01:21:17.628Z,137.60
2019-05-14T01:21:53.039Z,144.60
2019-05-14T01:22:28.611Z,147.40
2019-05-14T01:23:04.351Z,155.30
2019-05-14T01:23:41.480Z,146.50
2019-05-14T01:24:15.047Z,168.10
2019-05-14T01:24:52.153Z,161.10
2019-05-14T01:25:25.739Z,160.80
2019-05-14T01:26:02.368Z,154.60
2019-05-14T01:26:35.928Z,152.60
2019-05-14T01:27:12.387Z,133.70
2019-05-14T01:27:46.214Z,136.40
2019-05-14T01:28:22.067Z,155.00
2019-05-14T01:28:57.235Z,158.50
2019-05-14T01:29:32.351Z,165.80
2019-05-14T01:30:07.653Z,162.30
2019-05-14T01:30:43.055Z,152.50
2019-05-14T01:31:18.138Z,151.00
2019-05-14T01:31:53.755Z,161.80
2019-05-14T01:32:31.369Z,173.00
2019-05-14T01:33:04.504Z,158.30
2019-05-14T01:33:41.031Z,133.60
2019-05-14T01:34:15.371Z,151.50
2019-05-14T01:34:52.250Z,154.40
2019-05-14T01:35:25.975Z,156.20
2019-05-14T01:36:02.179Z,158.30
2019-05-14T01:36:36.678Z,163.70
2019-05-14T01:37:12.033Z,142.90
2019-05-14T01:37:47.184Z,135.40
2019-05-14T01:38:22.510Z,151.70
2019-05-14T01:38:57.722Z,167.90
2019-05-14T01:39:32.969Z,164.40
2019-05-14T01:40:08.418Z,139.90
2019-05-14T01:40:43.726Z,151.20
2019-05-14T01:41:18.628Z,154.40
2019-05-14T01:41:54.043Z,152.10
2019-05-14T01:42:29.427Z,150.30
2019-05-14T01:43:04.564Z,133.50
2019-05-14T01:43:41.734Z,141.90
2019-05-14T01:44:14.866Z,163.70
2019-05-14T01:44:51.973Z,159.30
2019-05-14T01:45:28.347Z,147.60
2019-05-14T01:46:01.998Z,135.30
2019-05-14T01:46:36.531Z,146.20
2019-05-14T01:47:12.666Z,153.50
2019-05-14T01:47:47.227Z,155.20
2019-05-14T01:48:22.464Z,149.70
2019-05-14T01:48:57.556Z,147.00
2019-05-14T01:49:32.861Z,146.80
2019-05-14T01:50:08.134Z,148.10
2019-05-14T01:50:43.635Z,156.00
2019-05-14T01:51:19.228Z,154.90
2019-05-14T01:51:54.633Z,155.70
2019-05-14T01:52:31.716Z,182.30
2019-05-14T01:53:05.025Z,170.00
2019-05-14T01:53:41.636Z,141.30
2019-05-14T01:54:15.534Z,155.50
2019-05-14T01:54:51.518Z,142.30
2019-05-14T01:55:26.274Z,139.60
2019-05-14T01:56:01.643Z,147.20
2019-05-14T01:56:36.579Z,165.40
2019-05-14T01:57:11.780Z,168.40
2019-05-14T01:57:47.147Z,150.50
2019-05-14T01:58:22.298Z,144.50
2019-05-14T01:58:57.549Z,151.40
2019-05-14T01:59:32.733Z,159.00
2019-05-14T02:00:08.138Z,154.30
2019-05-14T02:00:43.520Z,153.50
2019-05-14T02:01:18.638Z,149.90
2019-05-14T02:01:53.923Z,139.60
2019-05-14T02:02:31.210Z,150.10
2019-05-14T02:03:04.839Z,167.70
2019-05-14T02:03:41.121Z,160.80
2019-05-14T02:04:15.527Z,174.30
2019-05-14T02:04:51.346Z,153.20
2019-05-14T02:05:26.321Z,130.50
2019-05-14T02:06:01.667Z,140.20
2019-05-14T02:06:36.899Z,144.70
2019-05-14T02:07:15.475Z,154.50
2019-05-14T02:07:47.411Z,156.00
2019-05-14T02:08:22.607Z,150.70
2019-05-14T02:08:57.831Z,150.60
2019-05-14T02:09:33.014Z,154.70
2019-05-14T02:10:08.233Z,162.40
2019-05-14T02:10:43.304Z,151.20
2019-05-14T02:11:18.500Z,152.90
2019-05-14T02:11:53.778Z,155.90
2019-05-14T02:12:31.380Z,153.50
2019-05-14T02:13:04.385Z,148.90
2019-05-14T02:13:41.261Z,152.90
2019-05-14T02:14:15.032Z,163.20
2019-05-14T02:14:51.259Z,167.30
2019-05-14T02:15:36.360Z,147.90
2019-05-14T02:16:01.379Z,144.20
2019-05-14T02:16:36.229Z,142.40
2019-05-14T02:17:12.471Z,142.90
2019-05-14T02:17:46.914Z,144.20
2019-05-14T02:18:22.529Z,160.00
2019-05-14T02:18:57.735Z,160.50
2019-05-14T02:19:33.115Z,149.90
2019-05-14T02:20:08.328Z,135.10
2019-05-14T02:20:43.806Z,151.90
2019-05-14T02:21:19.020Z,152.30
2019-05-14T02:21:54.201Z,154.10
2019-05-14T02:22:31.907Z,153.70
2019-05-14T02:23:05.032Z,151.30
2019-05-14T02:23:41.898Z,164.80
2019-05-14T02:24:15.414Z,165.80
2019-05-14T02:24:52.045Z,155.90
2019-05-14T02:25:26.102Z,162.10
2019-05-14T02:26:02.615Z,156.70
2019-05-14T02:26:36.986Z,137.80
2019-05-14T02:27:12.540Z,151.80
2019-05-14T02:27:47.680Z,158.30
2019-05-14T02:28:23.017Z,151.40
2019-05-14T02:28:58.400Z,170.60
2019-05-14T02:29:33.921Z,178.10
2019-05-14T02:30:09.604Z,167.70
2019-05-14T02:30:56.055Z,155.70
2019-05-14T02:31:20.689Z,139.60
2019-05-14T02:31:58.823Z,149.30
2019-05-14T02:32:31.157Z,151.70
2019-05-14T02:33:09.126Z,156.40
2019-05-14T02:33:42.150Z,153.60
2019-05-14T02:34:19.842Z,133.90
2019-05-14T02:34:52.925Z,147.80
2019-05-14T02:35:29.806Z,154.60
2019-05-14T02:36:03.813Z,156.60
2019-05-14T02:36:39.955Z,146.60
2019-05-14T02:37:14.215Z,142.80
2019-05-14T02:37:50.410Z,141.40
2019-05-14T02:38:25.045Z,147.30
2019-05-14T02:39:00.345Z,144.60
2019-05-14T02:39:35.332Z,147.70
2019-05-14T02:40:10.440Z,159.20
2019-05-14T02:40:49.102Z,152.80
2019-05-14T02:41:21.007Z,144.70
2019-05-14T02:41:58.759Z,150.90
2019-05-14T02:42:31.493Z,159.90
2019-05-14T02:43:09.550Z,149.60
2019-05-14T02:43:42.394Z,134.80
2019-05-14T02:44:18.867Z,138.60
2019-05-14T02:44:53.383Z,147.50
2019-05-14T02:45:30.298Z,163.20
2019-05-14T02:46:12.088Z,161.00
2019-05-14T02:46:40.389Z,162.80
2019-05-14T02:47:14.787Z,137.30
2019-05-14T02:47:50.556Z,118.80
2019-05-14T02:48:25.388Z,136.40
2019-05-14T02:49:00.707Z,145.00
2019-05-14T02:49:39.303Z,141.80
2019-05-14T02:50:11.237Z,130.80
2019-05-14T02:50:49.087Z,125.70
2019-05-14T02:51:21.835Z,145.60
2019-05-14T02:51:59.084Z,151.00
2019-05-14T02:52:32.512Z,160.00
2019-05-14T02:53:10.219Z,155.30
2019-05-14T02:53:43.126Z,138.20
2019-05-14T02:54:20.364Z,144.70
2019-05-14T02:54:53.831Z,150.10
2019-05-14T02:55:29.934Z,146.10
2019-05-14T02:56:04.709Z,152.70
2019-05-14T02:56:40.203Z,138.70
2019-05-14T02:57:15.311Z,136.30
2019-05-14T02:57:50.935Z,145.40
2019-05-14T02:58:29.528Z,165.60
2019-05-14T02:59:05.226Z,168.80
2019-05-14T02:59:39.134Z,152.00
2019-05-14T03:00:12.237Z,153.30
2019-05-14T03:00:49.162Z,133.60
2019-05-14T03:01:23.122Z,128.60
2019-05-14T03:01:59.118Z,146.00
2019-05-14T03:02:33.755Z,145.00
2019-05-14T03:03:09.868Z,150.30
2019-05-14T03:03:44.564Z,157.70
2019-05-14T03:04:19.910Z,146.20
2019-05-14T03:04:55.327Z,152.50
2019-05-14T03:05:30.947Z,161.20
2019-05-14T03:06:09.209Z,164.40
2019-05-14T03:06:41.631Z,158.10
2019-05-14T03:07:19.137Z,152.20
2019-05-14T03:07:52.161Z,146.50
2019-05-14T03:08:30.109Z,147.80
2019-05-14T03:09:03.044Z,155.00
2019-05-14T03:09:40.230Z,155.50
2019-05-14T03:10:13.730Z,158.60
2019-05-14T03:10:50.244Z,151.00
2019-05-14T03:11:24.337Z,143.40
2019-05-14T03:11:59.776Z,130.10
2019-05-14T03:12:34.819Z,131.70
2019-05-14T03:13:10.268Z,135.10
2019-05-14T03:13:49.277Z,148.70
2019-05-14T03:14:21.163Z,146.00
2019-05-14T03:14:58.857Z,158.60
2019-05-14T03:15:32.065Z,154.70
2019-05-14T03:16:22.357Z,148.60
2019-05-14T03:16:42.752Z,159.70
2019-05-14T03:17:19.860Z,160.90
2019-05-14T03:17:53.248Z,143.80
2019-05-14T03:18:29.455Z,127.70
2019-05-14T03:19:04.155Z,126.10
2019-05-14T03:19:40.787Z,137.00
2019-05-14T03:20:15.250Z,155.30
2019-05-14T03:20:50.550Z,153.10
2019-05-14T03:21:25.754Z,149.30
2019-05-14T03:22:00.949Z,142.60
2019-05-14T03:22:46.452Z,130.50
2019-05-14T03:23:18.099Z,139.10
2019-05-14T03:23:49.386Z,151.70
2019-05-14T03:24:22.575Z,150.20
2019-05-14T03:24:59.795Z,154.00
2019-05-14T03:25:33.382Z,154.70
2019-05-14T03:26:09.602Z,153.50
2019-05-14T03:26:44.064Z,147.00
2019-05-14T03:27:19.681Z,138.90
2019-05-14T03:27:54.801Z,149.20
2019-05-14T03:28:30.599Z,156.70
2019-05-14T03:29:09.567Z,150.20
2019-05-14T03:29:41.088Z,127.70
2019-05-14T03:30:22.099Z,133.00
2019-05-14T03:30:53.042Z,148.90
2019-05-14T03:31:32.401Z,154.80
2019-05-14T03:32:03.736Z,159.30
2019-05-14T03:32:42.244Z,138.90
2019-05-14T03:33:14.000Z,147.30
2019-05-14T03:33:52.496Z,147.80
2019-05-14T03:34:23.890Z,147.40
2019-05-14T03:35:03.894Z,147.40
2019-05-14T03:35:42.053Z,134.30
2019-05-14T03:36:17.356Z,145.40
2019-05-14T03:36:45.010Z,142.30
2019-05-14T03:37:23.366Z,120.60
2019-05-14T03:37:55.415Z,138.10
2019-05-14T03:38:30.747Z,136.00
2019-05-14T03:39:05.904Z,136.10
2019-05-14T03:39:41.122Z,140.60
2019-05-14T03:40:19.225Z,147.70
2019-05-14T03:40:51.902Z,157.10
2019-05-14T03:41:30.340Z,154.20
2019-05-14T03:42:02.281Z,148.60
2019-05-14T03:42:39.873Z,142.70
2019-05-14T03:43:12.999Z,136.00
2019-05-14T03:43:49.396Z,156.20
2019-05-14T03:44:23.612Z,154.50
2019-05-14T03:44:59.679Z,145.10
2019-05-14T03:45:34.606Z,136.70
2019-05-14T03:46:10.190Z,133.50
2019-05-14T03:46:53.868Z,143.60
2019-05-14T03:47:20.696Z,158.90
2019-05-14T03:47:58.320Z,157.20
2019-05-14T03:48:31.504Z,156.40
2019-05-14T03:49:09.111Z,137.30
2019-05-14T03:49:41.891Z,152.30
2019-05-14T03:50:19.185Z,137.30
2019-05-14T03:50:52.673Z,138.20
2019-05-14T03:51:29.849Z,139.90
2019-05-14T03:52:03.368Z,131.10
2019-05-14T03:52:39.979Z,153.70
2019-05-14T03:53:14.598Z,145.20
2019-05-14T03:54:01.087Z,147.20
2019-05-14T03:54:25.638Z,171.70
2019-05-14T03:55:04.455Z,167.50
2019-05-14T03:55:39.998Z,167.20
2019-05-14T03:56:11.925Z,150.40
2019-05-14T03:56:49.499Z,139.40
2019-05-14T03:57:22.488Z,157.10
2019-05-14T03:57:59.588Z,151.50
2019-05-14T03:58:32.987Z,135.00
2019-05-14T03:59:09.586Z,153.40
2019-05-14T03:59:43.697Z,154.50
2019-05-14T04:00:19.052Z,146.10
2019-05-14T04:00:54.438Z,152.40
2019-05-14T04:01:30.073Z,155.50
2019-05-14T04:02:05.026Z,160.30
2019-05-14T04:02:40.430Z,151.40
2019-05-14T04:03:15.630Z,155.30
2019-05-14T04:03:50.925Z,161.90
2019-05-14T04:04:29.653Z,160.30
2019-05-14T04:05:02.137Z,150.50
2019-05-14T04:05:39.909Z,142.40
2019-05-14T04:06:12.934Z,140.60
2019-05-14T04:06:49.683Z,146.50
2019-05-14T04:07:23.822Z,145.40
2019-05-14T04:08:00.103Z,144.20
2019-05-14T04:08:34.431Z,151.30
2019-05-14T04:09:09.905Z,137.00
2019-05-14T04:09:45.331Z,134.00
2019-05-14T04:10:20.935Z,144.10
2019-05-14T04:10:58.878Z,139.00
2019-05-14T04:11:31.128Z,130.00
2019-05-14T04:12:09.555Z,150.00
2019-05-14T04:12:41.716Z,139.40
2019-05-14T04:13:19.720Z,152.80
2019-05-14T04:13:52.524Z,148.10
2019-05-14T04:14:29.194Z,132.00
2019-05-14T04:15:02.749Z,131.50
2019-05-14T04:15:39.138Z,139.80
2019-05-14T04:16:13.190Z,141.60
2019-05-14T04:17:03.886Z,150.00
2019-05-14T04:17:32.125Z,137.20
2019-05-14T04:17:59.675Z,138.40
2019-05-14T04:18:34.687Z,152.20
2019-05-14T04:19:10.138Z,154.50
2019-05-14T04:19:45.169Z,145.30
2019-05-14T04:20:20.774Z,131.70
2019-05-14T04:20:58.962Z,134.00
2019-05-14T04:21:31.256Z,158.60
2019-05-14T04:22:09.876Z,162.50
2019-05-14T04:22:42.339Z,138.10
2019-05-14T04:23:19.867Z,141.20
2019-05-14T04:23:53.038Z,141.50
2019-05-14T04:24:29.536Z,146.30
2019-05-14T04:25:03.520Z,167.10
2019-05-14T04:25:39.141Z,170.00
2019-05-14T04:26:14.307Z,149.70
2019-05-14T04:27:01.020Z,151.90
2019-05-14T04:27:25.332Z,158.10
2019-05-14T04:28:00.440Z,144.40
2019-05-14T04:28:38.954Z,153.70
2019-05-14T04:29:11.227Z,157.80
2019-05-14T04:29:49.612Z,152.80
2019-05-14T04:30:24.201Z,134.70
2019-05-14T04:30:59.760Z,146.40
2019-05-14T04:31:32.968Z,160.90
2019-05-14T04:32:09.507Z,165.10
2019-05-14T04:32:43.723Z,164.80
2019-05-14T04:33:19.171Z,154.00
2019-05-14T04:33:54.470Z,166.40
2019-05-14T04:34:30.286Z,159.10
2019-05-14T04:35:05.347Z,159.80
2019-05-14T04:35:40.642Z,148.90
2019-05-14T04:36:19.216Z,150.30
2019-05-14T04:36:51.432Z,159.00
2019-05-14T04:37:29.017Z,172.50
2019-05-14T04:38:02.268Z,162.50
2019-05-14T04:38:40.477Z,145.60
2019-05-14T04:39:12.871Z,145.00
2019-05-14T04:39:50.382Z,164.60
2019-05-14T04:40:23.139Z,166.50
2019-05-14T04:40:59.819Z,160.50
2019-05-14T04:41:33.744Z,150.30
2019-05-14T04:42:09.539Z,146.60
2019-05-14T04:42:43.953Z,159.70
2019-05-14T04:43:19.357Z,153.80
2019-05-14T04:43:54.567Z,139.50
2019-05-14T04:44:30.239Z,140.00
2019-05-14T04:45:06.045Z,176.30
2019-05-14T04:45:41.074Z,184.50
2019-05-14T04:46:19.470Z,172.00
2019-05-14T04:46:51.462Z,166.60
2019-05-14T04:47:35.809Z,160.20
2019-05-14T04:48:02.089Z,153.50
2019-05-14T04:48:42.541Z,162.30
2019-05-14T04:49:12.863Z,160.80
2019-05-14T04:49:50.560Z,157.50
2019-05-14T04:50:25.622Z,150.70
2019-05-14T04:51:00.444Z,154.80
2019-05-14T04:51:34.432Z,164.80
2019-05-14T04:52:10.239Z,173.80
2019-05-14T04:52:45.303Z,160.30
2019-05-14T04:53:20.734Z,156.90
2019-05-14T04:53:59.591Z,165.80
2019-05-14T04:54:31.354Z,138.80
2019-05-14T04:55:09.033Z,156.00
2019-05-14T04:55:42.431Z,163.20
2019-05-14T04:56:19.597Z,175.70
2019-05-14T04:56:53.113Z,163.30
2019-05-14T04:57:29.952Z,134.80
2019-05-14T04:58:03.886Z,150.90
2019-05-14T04:58:40.881Z,159.40
2019-05-14T04:59:14.511Z,148.50
2019-05-14T04:59:49.911Z,162.50
2019-05-14T05:00:25.320Z,148.70
2019-05-14T05:01:01.092Z,137.00
2019-05-14T05:01:39.901Z,141.90
2019-05-14T05:02:11.963Z,148.60
2019-05-14T05:02:49.815Z,165.40
2019-05-14T05:03:22.792Z,159.50
2019-05-14T05:03:59.198Z,131.60
2019-05-14T05:04:33.285Z,122.00
2019-05-14T05:05:09.016Z,155.50
2019-05-14T05:05:44.161Z,166.60
2019-05-14T05:06:19.645Z,148.20
2019-05-14T05:06:55.044Z,146.10
2019-05-14T05:07:30.169Z,131.20
2019-05-14T05:08:08.852Z,122.80
2019-05-14T05:08:40.664Z,112.10
2019-05-14T05:09:15.881Z,113.00
2019-05-14T05:09:51.158Z,117.20
2019-05-14T05:10:29.548Z,126.10
2019-05-14T05:11:01.931Z,128.40
2019-05-14T05:11:39.432Z,125.70
2019-05-14T05:12:12.606Z,132.80
2019-05-14T05:12:49.259Z,123.10
2019-05-14T05:13:23.293Z,124.60
2019-05-14T05:13:59.210Z,103.40
2019-05-14T05:14:33.977Z,114.20
2019-05-14T05:15:09.582Z,109.30
2019-05-14T05:15:44.374Z,93.80
2019-05-14T05:16:19.696Z,119.00
2019-05-14T05:16:54.694Z,84.20
2019-05-14T05:17:42.715Z,119.40
2019-05-14T05:18:05.296Z,132.10
2019-05-14T05:18:40.619Z,119.70
2019-05-14T05:19:15.995Z,102.60
2019-05-14T05:19:51.888Z,104.90
2019-05-14T05:20:28.932Z,110.40
2019-05-14T05:21:02.310Z,97.40
2019-05-14T05:21:38.747Z,112.00
2019-05-14T05:22:12.893Z,101.90
2019-05-14T05:22:48.531Z,93.20
2019-05-14T05:23:23.721Z,96.50
2019-05-14T05:23:59.433Z,76.60
2019-05-14T05:24:34.513Z,79.50
2019-05-14T05:25:10.125Z,65.50
2019-05-14T05:25:45.423Z,97.80
2019-05-14T05:26:21.040Z,91.30
2019-05-14T05:26:58.360Z,86.70
2019-05-14T05:27:31.433Z,85.10
2019-05-14T05:28:08.674Z,65.50
2019-05-14T05:28:42.352Z,89.40
2019-05-14T05:29:18.611Z,77.40
2019-05-14T05:29:52.861Z,72.40
2019-05-14T05:30:29.479Z,64.00
2019-05-14T05:31:03.353Z,119.30
2019-05-14T05:31:38.854Z,96.00
2019-05-14T05:32:14.236Z,95.90
2019-05-14T05:32:49.683Z,78.10
2019-05-14T05:33:24.658Z,68.50
2019-05-14T05:34:00.073Z,55.00
2019-05-14T05:34:35.473Z,113.40
2019-05-14T05:35:10.847Z,94.90
2019-05-14T05:35:48.496Z,89.50
2019-05-14T05:36:21.236Z,109.40
2019-05-14T05:36:56.360Z,90.10
2019-05-14T05:37:31.835Z,102.60
2019-05-14T05:38:08.755Z,103.50
2019-05-14T05:38:42.775Z,90.00
2019-05-14T05:39:18.924Z,111.10
2019-05-14T05:39:53.473Z,85.90
2019-05-14T05:40:28.939Z,92.50
2019-05-14T05:41:04.173Z,105.30
2019-05-14T05:41:39.594Z,116.00
2019-05-14T05:42:14.909Z,126.20
2019-05-14T05:42:50.138Z,115.70
2019-05-14T05:43:25.652Z,118.60
2019-05-14T05:44:01.041Z,94.60
2019-05-14T05:44:39.031Z,101.70
2019-05-14T05:45:11.837Z,92.60
2019-05-14T05:45:48.543Z,106.80
2019-05-14T05:46:22.351Z,112.10
2019-05-14T05:46:59.462Z,132.80
2019-05-14T05:47:33.128Z,111.90
2019-05-14T05:48:08.460Z,109.50
2019-05-14T05:48:43.666Z,76.50
2019-05-14T05:49:19.052Z,121.60
2019-05-14T05:49:54.366Z,125.70
2019-05-14T05:50:29.872Z,106.60
2019-05-14T05:51:05.183Z,106.20
2019-05-14T05:51:40.261Z,115.70
2019-05-14T05:52:15.884Z,114.70
2019-05-14T05:52:53.784Z,104.70
2019-05-14T05:53:28.538Z,130.70
2019-05-14T05:54:02.001Z,99.00
2019-05-14T05:54:38.459Z,113.60
2019-05-14T05:55:12.545Z,101.70
2019-05-14T05:55:48.447Z,134.50
2019-05-14T05:56:23.466Z,116.00
2019-05-14T05:56:58.761Z,98.40
2019-05-14T05:57:34.167Z,88.00
2019-05-14T05:58:09.602Z,87.70
2019-05-14T05:58:45.007Z,113.40
2019-05-14T05:59:20.391Z,138.30
2019-05-14T05:59:55.697Z,132.80
2019-05-14T06:00:30.705Z,107.80
2019-05-14T06:01:09.337Z,104.70
2019-05-14T06:01:45.995Z,117.70
2019-05-14T06:02:18.637Z,111.70
2019-05-14T06:02:52.560Z,110.60
2019-05-14T06:03:30.021Z,131.40
2019-05-14T06:04:03.299Z,131.80
2019-05-14T06:04:39.289Z,122.40
2019-05-14T06:05:14.446Z,114.60
2019-05-14T06:05:49.775Z,115.00
2019-05-14T06:06:25.115Z,125.70
2019-05-14T06:07:02.654Z,115.60
2019-05-14T06:07:36.290Z,119.70
2019-05-14T06:08:11.446Z,118.30
2019-05-14T06:08:48.877Z,116.20
2019-05-14T06:09:21.857Z,106.50
2019-05-14T06:09:58.785Z,113.30
2019-05-14T06:10:32.869Z,121.60
2019-05-14T06:11:08.466Z,123.00
2019-05-14T06:11:43.398Z,104.10
2019-05-14T06:12:19.030Z,93.50
2019-05-14T06:12:54.012Z,73.00
2019-05-14T06:13:29.556Z,121.20
2019-05-14T06:14:04.862Z,108.80
2019-05-14T06:14:40.196Z,106.20
2019-05-14T06:15:15.397Z,120.10
2019-05-14T06:15:52.211Z,136.60
2019-05-14T06:16:26.264Z,129.40
2019-05-14T06:17:01.602Z,152.50
2019-05-14T06:17:39.044Z,142.30
2019-05-14T06:18:17.989Z,126.30
2019-05-14T06:18:48.397Z,131.00
2019-05-14T06:19:23.579Z,135.20
2019-05-14T06:19:59.148Z,122.00
2019-05-14T06:20:34.119Z,128.90
2019-05-14T06:21:09.433Z,131.80
2019-05-14T06:21:44.750Z,134.60
2019-05-14T06:22:20.178Z,106.00
2019-05-14T06:22:55.588Z,107.50
2019-05-14T06:23:31.102Z,143.90
2019-05-14T06:24:08.852Z,163.50
2019-05-14T06:24:41.835Z,154.80
2019-05-14T06:25:20.464Z,137.00
2019-05-14T06:25:52.443Z,136.50
2019-05-14T06:26:28.994Z,146.20
2019-05-14T06:27:03.154Z,136.30
2019-05-14T06:27:38.475Z,150.70
2019-05-14T06:28:14.030Z,149.20
2019-05-14T06:28:49.897Z,128.70
2019-05-14T06:29:24.964Z,121.90
2019-05-14T06:30:00.163Z,145.00
2019-05-14T06:30:35.507Z,144.50
2019-05-14T06:31:11.129Z,144.10
2019-05-14T06:31:49.289Z,132.80
2019-05-14T06:32:21.862Z,150.40
2019-05-14T06:32:59.221Z,162.90
2019-05-14T06:33:32.392Z,180.20
2019-05-14T06:34:09.584Z,162.10
2019-05-14T06:34:43.010Z,161.10
2019-05-14T06:35:19.284Z,150.60
2019-05-14T06:35:53.658Z,188.80
2019-05-14T06:36:29.110Z,192.70
2019-05-14T06:37:04.281Z,155.80
2019-05-14T06:37:39.874Z,192.50
2019-05-14T06:38:15.117Z,195.30
2019-05-14T06:38:50.426Z,179.20
2019-05-14T06:39:28.130Z,158.80
2019-05-14T06:40:01.162Z,214.40
2019-05-14T06:40:39.274Z,185.70
2019-05-14T06:41:11.743Z,164.20
2019-05-14T06:41:49.008Z,175.40
2019-05-14T06:42:22.814Z,179.90
2019-05-14T06:42:59.120Z,168.70
2019-05-14T06:43:33.449Z,170.70
2019-05-14T06:44:09.236Z,155.20
2019-05-14T06:44:44.261Z,151.80
2019-05-14T06:45:19.863Z,142.80
2019-05-14T06:45:54.994Z,134.60
2019-05-14T06:46:30.595Z,131.00
2019-05-14T06:47:06.128Z,144.20
2019-05-14T06:47:41.243Z,148.00
2019-05-14T06:48:29.809Z,149.80
2019-05-14T06:48:51.798Z,150.10
2019-05-14T06:49:28.956Z,133.50
2019-05-14T06:50:02.618Z,135.30
2019-05-14T06:50:39.133Z,157.20
2019-05-14T06:51:13.560Z,179.10
2019-05-14T06:51:49.083Z,150.30
2019-05-14T06:52:24.517Z,142.40
2019-05-14T06:52:59.844Z,131.00
2019-05-14T06:53:35.278Z,155.80
2019-05-14T06:54:10.504Z,160.00
2019-05-14T06:54:46.022Z,162.80
2019-05-14T06:55:21.350Z,142.70
2019-05-14T06:55:58.564Z,111.60
2019-05-14T06:56:32.126Z,137.20
2019-05-14T06:57:08.884Z,152.30
2019-05-14T06:57:42.649Z,124.80
2019-05-14T06:58:20.135Z,123.80
2019-05-14T06:58:53.380Z,126.00
2019-05-14T06:59:28.951Z,155.20
2019-05-14T07:00:04.000Z,141.30
2019-05-14T07:00:39.676Z,127.90
2019-05-14T07:01:14.802Z,147.80
2019-05-14T07:01:50.324Z,152.00
2019-05-14T07:02:25.426Z,128.30
2019-05-14T07:03:00.984Z,119.80
2019-05-14T07:03:38.082Z,143.00
2019-05-14T07:04:11.765Z,124.70
2019-05-14T07:04:48.394Z,117.20
2019-05-14T07:05:22.481Z,102.00
2019-05-14T07:05:59.541Z,100.10
2019-05-14T07:06:33.305Z,102.80
2019-05-14T07:07:08.673Z,88.40
2019-05-14T07:07:44.181Z,88.00
2019-05-14T07:08:19.728Z,101.30
2019-05-14T07:08:54.818Z,87.70
2019-05-14T07:09:30.240Z,124.70
2019-05-14T07:10:05.727Z,100.00
2019-05-14T07:10:41.325Z,91.70
2019-05-14T07:11:18.887Z,101.70
2019-05-14T07:11:52.033Z,111.30
2019-05-14T07:12:29.206Z,108.10
2019-05-14T07:13:02.380Z,94.70
2019-05-14T07:13:38.490Z,126.00
2019-05-14T07:14:13.420Z,94.10
2019-05-14T07:14:49.026Z,97.70
2019-05-14T07:15:24.823Z,107.80
2019-05-14T07:16:00.522Z,114.90
2019-05-14T07:16:35.949Z,106.10
2019-05-14T07:17:11.286Z,98.00
2019-05-14T07:17:48.676Z,125.80
2019-05-14T07:18:22.254Z,117.30
2019-05-14T07:18:59.122Z,97.90
2019-05-14T07:19:32.974Z,109.70
2019-05-14T07:20:08.918Z,142.60
2019-05-14T07:20:43.939Z,125.90
2019-05-14T07:21:19.236Z,95.70
2019-05-14T07:21:54.661Z,88.80
2019-05-14T07:22:30.056Z,127.50